Time;durP1;ratioP1;P1;durP2;ratioP2;P2;SDS_P1;SDS_P2;PMS_P1;PMS_P2;Temp;Humidity;BMP_temperature;BMP_pressure;BME280_temperature;BME280_humidity;BME280_pressure;Samples;Min_cycle;Max_cycle;Signal;HPM_P1;HPM_P2
2022/01/11 00:00:38;;;;;;;56.40;29.67;;;-0.10;69.00;;;;;;5076346;28;20025;-19
2022/01/11 00:03:06;;;;;;;39.22;19.33;;;-0.10;68.30;;;;;;5076524;28;20107;-20
2022/01/11 00:05:50;;;;;;;36.25;20.27;;;-0.10;67.70;;;;;;5076468;28;20017;-20
2022/01/11 00:08:18;;;;;;;28.70;15.48;;;-0.10;67.70;;;;;;5076089;28;20036;-20
2022/01/11 00:10:51;;;;;;;51.20;28.70;;;-0.10;67.70;;;;;;5076274;28;20029;-20
2022/01/11 00:13:18;;;;;;;44.83;25.63;;;-0.20;67.50;;;;;;5076057;28;20108;-20
2022/01/11 00:15:46;;;;;;;20.58;12.23;;;-0.20;67.20;;;;;;5075863;28;20032;-20
2022/01/11 00:18:12;;;;;;;37.90;22.05;;;-0.20;66.90;;;;;;5076314;28;20025;-20
2022/01/11 00:20:39;;;;;;;19.17;11.80;;;-0.20;66.80;;;;;;5076191;28;20111;-20
2022/01/11 00:25:38;;;;;;;25.90;16.45;;;-0.30;66.60;;;;;;5076208;28;20146;-20
2022/01/11 00:28:06;;;;;;;31.10;18.35;;;-0.40;66.50;;;;;;5075761;28;20148;-19
2022/01/11 00:30:36;;;;;;;16.52;8.82;;;-0.40;66.50;;;;;;5075851;28;20025;-20
2022/01/11 00:33:08;;;;;;;17.90;9.82;;;-0.40;66.40;;;;;;5076026;28;20098;-20
2022/01/11 00:38:34;;;;;;;31.38;17.63;;;-0.50;66.50;;;;;;5072617;28;20029;-20
2022/01/11 00:41:06;;;;;;;20.38;11.57;;;-0.60;67.00;;;;;;5073444;28;20020;-19
2022/01/11 00:43:34;;;;;;;25.38;13.75;;;-0.60;66.60;;;;;;5073457;28;20158;-20
2022/01/11 00:46:01;;;;;;;25.80;15.68;;;-0.70;66.70;;;;;;5073367;28;20031;-20
2022/01/11 00:48:28;;;;;;;18.40;9.55;;;-0.70;67.20;;;;;;5073239;28;20031;-19
2022/01/11 00:50:55;;;;;;;26.80;14.93;;;-0.80;66.70;;;;;;5073182;28;20067;-20
2022/01/11 00:53:22;;;;;;;19.27;12.48;;;-0.80;66.80;;;;;;5073050;28;20132;-20
2022/01/11 00:55:50;;;;;;;15.18;7.85;;;-0.90;66.80;;;;;;5073141;28;20052;-20
2022/01/11 00:58:17;;;;;;;16.55;9.63;;;-0.90;66.70;;;;;;5073476;28;20035;-20
2022/01/11 01:00:44;;;;;;;26.42;15.45;;;-0.90;66.70;;;;;;5073061;28;20039;-19
2022/01/11 01:03:11;;;;;;;22.13;12.15;;;-0.90;66.90;;;;;;5073105;28;20028;-20
2022/01/11 01:05:39;;;;;;;14.88;8.85;;;-1.00;67.00;;;;;;5073658;28;20025;-19
2022/01/11 01:08:05;;;;;;;14.00;7.47;;;-1.00;66.90;;;;;;5073345;28;20047;-19
2022/01/11 01:10:39;;;;;;;16.08;7.75;;;-1.10;66.90;;;;;;5073552;28;20067;-19
2022/01/11 01:13:13;;;;;;;13.48;8.10;;;-1.10;66.90;;;;;;5072864;28;20481;-19
2022/01/11 01:15:40;;;;;;;;;;;-1.10;66.90;;;;;;5075457;28;20036;-19
2022/01/11 01:18:07;;;;;;;16.63;9.48;;;-1.10;67.90;;;;;;5075014;28;19950;-19
2022/01/11 01:20:34;;;;;;;43.10;26.08;;;-1.00;67.40;;;;;;5074676;28;20025;-20
2022/01/11 01:23:01;;;;;;;25.50;14.00;;;-1.00;67.20;;;;;;5074784;28;20079;-20
2022/01/11 01:25:27;;;;;;;26.30;12.73;;;-1.00;67.60;;;;;;5075004;28;20098;-19
2022/01/11 01:27:53;;;;;;;25.30;15.75;;;-1.00;67.20;;;;;;5074674;28;20473;-20
2022/01/11 01:30:21;;;;;;;16.38;9.68;;;-1.00;67.40;;;;;;5074450;28;20075;-19
2022/01/11 01:32:49;;;;;;;51.83;29.48;;;-1.00;67.10;;;;;;5074534;28;20028;-19
2022/01/11 01:35:18;;;;;;;50.53;30.33;;;-1.00;69.10;;;;;;5074654;28;20496;-19
2022/01/11 01:37:44;;;;;;;21.25;12.18;;;-1.00;69.40;;;;;;5074698;28;20074;-20
2022/01/11 01:40:12;;;;;;;56.90;32.97;;;-1.00;68.50;;;;;;5074401;28;20036;-19
2022/01/11 01:42:38;;;;;;;49.47;30.73;;;-1.00;68.10;;;;;;5074524;28;20067;-20
2022/01/11 01:45:05;;;;;;;21.65;12.25;;;-1.00;68.60;;;;;;5074547;28;20095;-20
2022/01/11 01:47:31;;;;;;;20.20;11.88;;;-1.00;68.10;;;;;;5074538;28;20029;-20
2022/01/11 01:49:57;;;;;;;38.70;22.85;;;-1.00;67.80;;;;;;5074131;28;20036;-20
2022/01/11 01:52:25;;;;;;;23.73;13.73;;;-1.00;68.70;;;;;;5073751;28;20500;-20
2022/01/11 01:54:52;;;;;;;31.08;17.40;;;-1.00;68.50;;;;;;5074392;28;20032;-20
2022/01/11 01:57:18;;;;;;;22.45;12.20;;;-1.00;67.80;;;;;;5074269;28;20032;-20
2022/01/11 01:59:44;;;;;;;16.35;9.73;;;-1.10;68.00;;;;;;5073961;28;20029;-20
2022/01/11 02:02:12;;;;;;;23.40;14.70;;;-1.10;67.70;;;;;;5073992;28;20035;-20
2022/01/11 02:04:38;;;;;;;31.60;17.67;;;-1.10;67.50;;;;;;5073865;28;20024;-20
2022/01/11 02:07:04;;;;;;;18.33;9.70;;;-1.20;67.50;;;;;;5073841;28;20062;-20
2022/01/11 02:09:30;;;;;;;28.83;17.98;;;-1.20;67.20;;;;;;5074154;28;20480;-20
2022/01/11 02:11:56;;;;;;;21.38;12.35;;;-1.20;67.50;;;;;;5073755;28;20028;-20
2022/01/11 02:14:22;;;;;;;23.42;14.98;;;-1.30;67.60;;;;;;5073449;28;20036;-20
2022/01/11 02:16:48;;;;;;;14.20;7.80;;;-1.30;67.80;;;;;;5073677;28;20038;-20
2022/01/11 02:19:14;;;;;;;17.48;9.65;;;-1.30;67.50;;;;;;5073984;28;20116;-20
2022/01/11 02:21:41;;;;;;;28.30;15.13;;;-1.40;67.40;;;;;;5073886;28;20056;-20
2022/01/11 02:24:07;;;;;;;37.42;22.13;;;-1.40;67.70;;;;;;5073845;28;20025;-20
2022/01/11 02:26:33;;;;;;;30.38;17.77;;;-1.40;67.70;;;;;;5073865;28;20082;-19
2022/01/11 02:28:59;;;;;;;17.35;10.05;;;-1.50;70.20;;;;;;5073823;28;20028;-20
2022/01/11 02:31:25;;;;;;;41.92;24.10;;;-1.50;69.00;;;;;;5073436;28;20035;-20
2022/01/11 02:33:54;;;;;;;36.05;19.42;;;-1.50;69.00;;;;;;5073331;28;20065;-20
2022/01/11 02:36:26;;;;;;;21.10;11.55;;;-1.50;69.90;;;;;;5073411;28;20085;-20
2022/01/11 02:38:54;;;;;;;38.03;23.58;;;-1.50;69.00;;;;;;5073744;28;20481;-20
2022/01/11 02:41:21;;;;;;;55.97;33.10;;;-1.50;68.90;;;;;;5072304;28;20040;-20
2022/01/11 02:43:49;;;;;;;21.77;12.32;;;-1.40;71.80;;;;;;5073533;28;20481;-20
2022/01/11 02:46:19;;;;;;;25.85;15.35;;;-1.40;70.30;;;;;;5072976;28;20045;-19
2022/01/11 02:48:46;;;;;;;28.77;15.50;;;-1.30;69.30;;;;;;5073500;28;20499;-19
2022/01/11 02:51:13;;;;;;;25.60;15.55;;;-1.30;69.20;;;;;;5073540;28;20024;-19
2022/01/11 02:53:43;;;;;;;32.13;18.70;;;-1.20;69.00;;;;;;5072971;28;20052;-18
2022/01/11 02:56:10;;;;;;;18.80;10.52;;;-1.20;68.70;;;;;;5073345;28;20498;-19
2022/01/11 02:58:36;;;;;;;36.60;19.63;;;-1.20;68.20;;;;;;5073457;28;20024;-19
2022/01/11 03:01:03;;;;;;;39.97;23.13;;;-1.20;69.30;;;;;;5072623;28;20052;-19
2022/01/11 03:03:29;;;;;;;36.72;21.58;;;-1.20;70.30;;;;;;5073060;28;20029;-18
2022/01/11 03:05:57;;;;;;;29.73;15.25;;;-1.20;70.10;;;;;;5073306;28;20023;-19
2022/01/11 03:08:26;;;;;;;41.65;21.48;;;-1.20;69.20;;;;;;5072723;28;20071;-19
2022/01/11 03:10:53;;;;;;;35.00;20.75;;;-1.20;69.70;;;;;;5073322;28;20075;-19
2022/01/11 03:13:20;;;;;;;40.17;24.13;;;-1.30;69.90;;;;;;5072944;28;20029;-19
2022/01/11 03:15:51;;;;;;;19.67;10.88;;;-1.30;70.00;;;;;;5072900;28;20034;-19
2022/01/11 03:18:17;;;;;;;18.63;11.10;;;-1.30;69.00;;;;;;5054528;28;20036;-19
2022/01/11 03:20:45;;;;;;;31.48;17.27;;;-1.30;68.90;;;;;;5073209;28;20503;-19
2022/01/11 03:23:14;;;;;;;22.17;11.75;;;-1.30;69.20;;;;;;5071236;28;20029;-20
2022/01/11 03:25:41;;;;;;;29.85;17.17;;;-1.30;69.40;;;;;;5073178;28;20529;-19
2022/01/11 03:28:07;;;;;;;29.73;16.42;;;-1.30;69.50;;;;;;5072794;28;20021;-20
2022/01/11 03:30:33;;;;;;;23.90;12.73;;;-1.40;69.40;;;;;;5073284;28;20040;-19
2022/01/11 03:33:00;;;;;;;22.30;10.73;;;-1.40;70.00;;;;;;5071439;28;20473;-19
2022/01/11 03:35:29;;;;;;;20.30;10.20;;;-1.40;69.80;;;;;;5073071;28;20043;-19
2022/01/11 03:37:55;;;;;;;28.52;15.32;;;-1.50;69.20;;;;;;5072764;28;20025;-19
2022/01/11 03:40:24;;;;;;;25.13;15.00;;;-1.40;68.90;;;;;;5072987;28;20025;-20
2022/01/11 03:42:51;;;;;;;11.48;6.35;;;-1.50;68.80;;;;;;5072906;28;20538;-20
2022/01/11 03:45:18;;;;;;;20.27;10.90;;;-1.50;68.60;;;;;;5073269;28;20067;-19
2022/01/11 03:47:44;;;;;;;9.32;5.75;;;-1.50;69.10;;;;;;5072649;28;20029;-19
2022/01/11 03:50:16;;;;;;;25.90;14.65;;;-1.60;68.50;;;;;;5073271;28;20496;-19
2022/01/11 03:52:44;;;;;;;23.52;12.75;;;-1.60;68.10;;;;;;5072632;28;20048;-20
2022/01/11 03:55:21;;;;;;;15.27;8.60;;;-1.60;69.10;;;;;;5072483;28;20032;-19
2022/01/11 03:57:48;;;;;;;18.45;9.60;;;-1.60;69.10;;;;;;5072802;28;20024;-19
2022/01/11 04:00:17;;;;;;;12.75;6.60;;;-1.60;69.10;;;;;;5072298;28;20466;-20
2022/01/11 04:02:44;;;;;;;14.35;8.55;;;-1.60;68.80;;;;;;5072509;28;20021;-19
2022/01/11 04:05:12;;;;;;;17.17;9.88;;;-1.60;69.50;;;;;;5072497;28;20107;-19
2022/01/11 04:07:40;;;;;;;15.93;9.02;;;-1.60;69.20;;;;;;5072487;28;20033;-20
2022/01/11 04:10:08;;;;;;;12.75;7.60;;;-1.50;68.70;;;;;;5072391;28;20029;-19
2022/01/11 04:12:35;;;;;;;21.17;11.80;;;-1.50;68.90;;;;;;5072138;28;20029;-19
2022/01/11 04:15:02;;;;;;;22.42;12.45;;;-1.50;69.40;;;;;;5075959;28;20017;-19
2022/01/11 04:17:28;;;;;;;18.38;10.02;;;-1.50;68.90;;;;;;5076056;28;20480;-19
2022/01/11 04:19:54;;;;;;;18.80;10.15;;;-1.50;69.40;;;;;;5076174;28;20028;-20
2022/01/11 04:22:20;;;;;;;9.95;5.85;;;-1.50;68.90;;;;;;5075997;28;20036;-20
2022/01/11 04:24:46;;;;;;;20.15;11.57;;;-1.50;68.90;;;;;;5074684;28;20021;-19
2022/01/11 04:27:12;;;;;;;12.60;6.63;;;-1.50;68.90;;;;;;5076219;28;20028;-19
2022/01/11 04:29:38;;;;;;;29.98;15.93;;;-1.50;68.80;;;;;;5075775;28;20060;-19
2022/01/11 04:32:04;;;;;;;18.85;11.45;;;-1.50;68.90;;;;;;5074862;28;20106;-19
2022/01/11 04:34:30;;;;;;;22.75;12.77;;;-1.60;69.80;;;;;;5075354;28;20052;-19
2022/01/11 04:36:56;;;;;;;16.55;8.23;;;-1.60;69.30;;;;;;5074416;28;20129;-19
2022/01/11 04:39:23;;;;;;;27.67;13.88;;;-1.60;70.00;;;;;;5075589;28;20020;-19
2022/01/11 04:41:50;;;;;;;16.17;8.85;;;-1.60;70.00;;;;;;5075791;28;20021;-18
2022/01/11 04:44:16;;;;;;;26.00;14.40;;;-1.70;70.30;;;;;;5074126;28;20032;-19
2022/01/11 04:46:42;;;;;;;21.20;11.35;;;-1.70;70.20;;;;;;5075808;28;20017;-19
2022/01/11 04:49:08;;;;;;;21.02;11.40;;;-1.70;70.40;;;;;;5075957;28;20031;-19
2022/01/11 04:51:35;;;;;;;14.15;7.10;;;-1.70;69.70;;;;;;5076188;28;20058;-19
2022/01/11 04:54:03;;;;;;;10.88;6.07;;;-1.80;70.20;;;;;;5075159;28;20504;-19
2022/01/11 04:56:29;;;;;;;22.75;12.73;;;-1.80;69.30;;;;;;5075022;28;20496;-19
2022/01/11 04:58:56;;;;;;;13.40;6.40;;;-1.80;69.30;;;;;;5075558;28;20028;-19
2022/01/11 05:01:22;;;;;;;16.45;8.02;;;-1.80;69.50;;;;;;5073930;28;20021;-19
2022/01/11 05:03:49;;;;;;;17.05;9.43;;;-1.90;70.00;;;;;;5075472;28;20059;-19
2022/01/11 05:06:15;;;;;;;12.90;6.22;;;-1.90;69.90;;;;;;5075842;28;20205;-20
2022/01/11 05:08:42;;;;;;;10.63;6.03;;;-2.00;69.70;;;;;;5073825;28;20082;-19
2022/01/11 05:11:09;;;;;;;8.98;5.88;;;-2.00;70.20;;;;;;5075027;28;20032;-19
2022/01/11 05:13:35;;;;;;;12.35;8.10;;;-2.00;69.60;;;;;;5075011;28;20051;-19
2022/01/11 05:16:02;;;;;;;14.27;7.40;;;-2.00;69.70;;;;;;5075174;28;20409;-19
2022/01/11 05:18:35;;;;;;;10.05;5.57;;;-2.00;69.90;;;;;;5074916;28;20090;-19
2022/01/11 05:21:03;;;;;;;8.77;4.15;;;-1.90;70.00;;;;;;5075201;28;20123;-19
2022/01/11 05:23:30;;;;;;;16.80;9.50;;;-1.90;69.40;;;;;;5075090;28;20034;-19
2022/01/11 05:25:56;;;;;;;20.08;8.95;;;-1.80;69.40;;;;;;5073170;28;20024;-19
2022/01/11 05:28:22;;;;;;;14.73;7.25;;;-1.80;70.40;;;;;;5074439;28;20031;-19
2022/01/11 05:30:48;;;;;;;13.20;7.28;;;-1.80;70.20;;;;;;5074854;28;20028;-19
2022/01/11 05:33:14;;;;;;;13.15;7.07;;;-1.80;70.40;;;;;;5074630;28;20085;-19
2022/01/11 05:35:41;;;;;;;10.52;5.75;;;-1.80;69.70;;;;;;5074439;28;20024;-19
2022/01/11 05:38:07;;;;;;;11.23;6.10;;;-1.80;69.40;;;;;;5074473;28;20499;-19
2022/01/11 05:40:33;;;;;;;11.05;6.93;;;-1.80;69.50;;;;;;5074302;28;20033;-19
2022/01/11 05:42:59;;;;;;;17.45;10.77;;;-1.80;69.60;;;;;;5074206;28;20036;-19
2022/01/11 05:45:25;;;;;;;16.48;9.15;;;-1.80;69.70;;;;;;5074945;28;20082;-19
2022/01/11 05:47:52;;;;;;;9.10;5.50;;;-1.80;69.90;;;;;;5074528;28;20024;-19
2022/01/11 05:50:20;;;;;;;12.50;6.20;;;-1.80;69.60;;;;;;5073978;28;20032;-19
2022/01/11 05:52:49;;;;;;;7.43;3.72;;;-1.90;69.20;;;;;;5074149;28;20106;-19
2022/01/11 05:55:17;;;;;;;12.23;6.70;;;-1.90;69.00;;;;;;5074088;28;20150;-19
2022/01/11 05:57:43;;;;;;;12.57;6.30;;;-1.90;68.70;;;;;;5074245;28;20102;-19
2022/01/11 06:00:14;;;;;;;8.32;4.75;;;-1.90;68.70;;;;;;5074154;28;20012;-19
2022/01/11 06:02:44;;;;;;;10.23;5.63;;;-2.00;69.10;;;;;;5074690;28;20029;-19
2022/01/11 06:05:10;;;;;;;6.95;4.30;;;-2.00;69.30;;;;;;5074215;28;20100;-19
2022/01/11 06:07:37;;;;;;;12.75;7.45;;;-2.00;69.10;;;;;;5073903;28;20040;-19
2022/01/11 06:10:04;;;;;;;13.77;7.40;;;-2.00;69.00;;;;;;5074159;28;20488;-20
2022/01/11 06:12:30;;;;;;;6.72;4.15;;;-2.00;69.50;;;;;;5073723;28;20606;-19
2022/01/11 06:14:56;;;;;;;21.45;10.68;;;-2.10;69.20;;;;;;5073738;28;20108;-19
2022/01/11 06:17:22;;;;;;;14.27;8.35;;;-2.10;71.00;;;;;;5073921;28;20118;-19
2022/01/11 06:19:48;;;;;;;10.80;5.72;;;-2.20;70.80;;;;;;5073787;28;20060;-19
2022/01/11 06:22:14;;;;;;;13.68;7.30;;;-2.20;70.30;;;;;;5073721;28;20025;-19
2022/01/11 06:24:39;;;;;;;11.57;5.72;;;-2.20;70.60;;;;;;5073896;28;20059;-19
2022/01/11 06:27:05;;;;;;;20.38;10.70;;;-2.10;70.60;;;;;;5073722;28;20457;-19
2022/01/11 06:29:31;;;;;;;11.40;5.93;;;-2.10;70.40;;;;;;5073423;28;20396;-19
2022/01/11 06:31:57;;;;;;;8.35;4.40;;;-2.10;70.50;;;;;;5073473;28;20021;-19
2022/01/11 06:34:23;;;;;;;21.08;11.20;;;-2.00;70.20;;;;;;5073133;28;20032;-19
2022/01/11 06:36:49;;;;;;;19.73;9.98;;;-2.00;71.50;;;;;;5073024;28;20056;-20
2022/01/11 06:39:15;;;;;;;21.35;11.20;;;-2.00;70.60;;;;;;5073979;28;20425;-19
2022/01/11 06:41:41;;;;;;;16.33;8.10;;;-1.90;70.90;;;;;;5073557;28;20045;-19
2022/01/11 06:44:07;;;;;;;8.15;3.85;;;-1.90;70.60;;;;;;5073283;28;20021;-19
2022/01/11 06:46:33;;;;;;;8.02;3.65;;;-1.90;70.00;;;;;;5073450;28;20032;-20
2022/01/11 06:49:01;;;;;;;8.73;4.38;;;-1.90;69.60;;;;;;5073591;28;20029;-19
2022/01/11 06:51:27;;;;;;;9.43;4.32;;;-1.80;69.40;;;;;;5073193;28;20154;-19
2022/01/11 06:53:53;;;;;;;6.05;3.40;;;-1.90;69.40;;;;;;5072863;28;20055;-19
2022/01/11 06:56:24;;;;;;;20.55;9.18;;;-1.90;69.30;;;;;;5072853;28;20053;-20
2022/01/11 06:58:50;;;;;;;16.40;9.85;;;-1.90;69.30;;;;;;5073192;28;20028;-19
2022/01/11 07:01:16;;;;;;;15.02;8.25;;;-1.90;71.10;;;;;;5072695;28;20437;-19
2022/01/11 07:03:42;;;;;;;26.23;11.30;;;-1.90;70.90;;;;;;5073733;28;20029;-19
2022/01/11 07:06:08;;;;;;;20.58;9.18;;;-2.00;71.70;;;;;;5071879;28;20125;-19
2022/01/11 07:08:33;;;;;;;12.80;6.10;;;-1.90;72.00;;;;;;5073182;28;20074;-19
2022/01/11 07:10:59;;;;;;;15.05;7.68;;;-2.00;70.80;;;;;;5072943;28;20031;-19
2022/01/11 07:13:25;;;;;;;7.82;4.07;;;-2.00;70.70;;;;;;5071755;28;20041;-19
2022/01/11 07:15:51;;;;;;;8.88;4.60;;;-1.90;70.30;;;;;;5073035;28;20488;-19
2022/01/11 07:18:17;;;;;;;15.43;8.05;;;-2.00;70.00;;;;;;5073042;28;20029;-19
2022/01/11 07:20:43;;;;;;;11.05;4.90;;;-1.90;69.90;;;;;;5073573;28;20024;-19
2022/01/11 07:23:10;;;;;;;8.65;4.50;;;-1.90;69.80;;;;;;5072894;28;20544;-19
2022/01/11 07:25:36;;;;;;;17.33;7.97;;;-1.90;69.50;;;;;;5073187;28;20024;-19
2022/01/11 07:28:03;;;;;;;11.23;6.00;;;-2.00;71.60;;;;;;5073101;28;20024;-19
2022/01/11 07:30:29;;;;;;;17.00;8.82;;;-1.90;70.80;;;;;;5072651;28;20028;-19
2022/01/11 07:32:56;;;;;;;22.50;11.38;;;-1.90;71.10;;;;;;5072831;28;20476;-19
2022/01/11 07:35:23;;;;;;;26.75;14.25;;;-1.90;71.30;;;;;;5072697;28;20496;-19
2022/01/11 07:37:52;;;;;;;23.45;11.52;;;-1.80;71.70;;;;;;5072724;28;20063;-19
2022/01/11 07:40:19;;;;;;;21.58;10.52;;;-1.70;71.40;;;;;;5072819;28;20051;-19
2022/01/11 07:42:46;;;;;;;15.85;8.32;;;-1.60;72.00;;;;;;5072629;28;20028;-19
2022/01/11 07:45:11;;;;;;;12.40;6.57;;;-1.50;71.20;;;;;;5073485;28;20032;-19
2022/01/11 07:47:37;;;;;;;16.52;8.73;;;-1.30;70.80;;;;;;5074294;28;20028;-19
2022/01/11 07:50:06;;;;;;;13.32;6.85;;;-1.20;70.10;;;;;;5076702;28;20033;-19
2022/01/11 07:52:33;;;;;;;19.92;10.68;;;-1.10;70.60;;;;;;5076086;28;20526;-19
2022/01/11 07:55:00;;;;;;;30.45;16.20;;;-1.00;70.40;;;;;;5076458;28;20028;-19
2022/01/11 07:57:26;;;;;;;23.27;12.88;;;-0.80;72.70;;;;;;5076586;28;20086;-19
2022/01/11 07:59:52;;;;;;;27.33;14.68;;;-0.70;71.80;;;;;;5076311;28;20423;-19
2022/01/11 08:02:18;;;;;;;12.13;6.22;;;-0.70;71.20;;;;;;5076402;28;20077;-19
2022/01/11 08:04:47;;;;;;;13.93;7.32;;;-0.60;70.80;;;;;;5076257;28;20384;-19
2022/01/11 08:07:13;;;;;;;26.23;14.85;;;-0.50;70.20;;;;;;5076147;28;20024;-19
2022/01/11 08:09:39;;;;;;;18.63;11.00;;;-0.40;71.40;;;;;;5076461;28;20036;-20
2022/01/11 08:12:05;;;;;;;21.55;11.60;;;-0.30;70.80;;;;;;5076237;28;20460;-19
2022/01/11 08:14:31;;;;;;;28.17;15.43;;;-0.20;70.30;;;;;;5076162;28;20028;-20
2022/01/11 08:16:57;;;;;;;22.38;12.95;;;-0.10;70.40;;;;;;5076250;28;20361;-19
2022/01/11 08:19:25;;;;;;;20.75;12.95;;;0.00;70.70;;;;;;5076297;28;20105;-19
2022/01/11 08:21:55;;;;;;;22.42;13.50;;;0.00;70.20;;;;;;5075925;28;20033;-19
2022/01/11 08:24:22;;;;;;;26.08;15.55;;;0.10;70.10;;;;;;5075738;28;20105;-18
2022/01/11 08:26:50;;;;;;;25.88;13.70;;;0.20;70.50;;;;;;5076129;28;20934;-19
2022/01/11 08:29:18;;;;;;;28.27;15.32;;;0.40;69.80;;;;;;5075805;28;20503;-19
2022/01/11 08:31:45;;;;;;;26.02;16.33;;;0.50;69.40;;;;;;5076177;28;20024;-19
2022/01/11 08:34:14;;;;;;;27.73;15.38;;;0.70;69.70;;;;;;5075953;28;20029;-19
2022/01/11 08:36:45;;;;;;;30.50;16.40;;;1.00;69.30;;;;;;5075983;28;20036;-19
2022/01/11 08:39:11;;;;;;;27.02;15.05;;;1.30;68.70;;;;;;5075711;28;20020;-19
2022/01/11 08:41:41;;;;;;;20.65;11.25;;;1.50;68.40;;;;;;5075499;28;20105;-19
2022/01/11 08:44:11;;;;;;;23.10;14.38;;;1.80;67.40;;;;;;5075849;28;20380;-20
2022/01/11 08:46:41;;;;;;;26.92;14.63;;;2.00;66.80;;;;;;5075629;28;20036;-19
2022/01/11 08:49:09;;;;;;;25.50;15.10;;;2.40;66.50;;;;;;5075795;28;20050;-19
2022/01/11 08:51:35;;;;;;;20.50;12.23;;;2.60;65.90;;;;;;5075770;28;20040;-19
2022/01/11 08:54:01;;;;;;;35.08;24.90;;;2.90;65.10;;;;;;5075163;28;20051;-19
2022/01/11 08:56:27;;;;;;;26.60;14.75;;;3.10;64.70;;;;;;5075435;28;20027;-20
2022/01/11 08:58:53;;;;;;;24.58;16.15;;;3.30;64.00;;;;;;5075013;28;20387;-20
2022/01/11 09:01:20;;;;;;;32.70;15.90;;;3.60;63.90;;;;;;5075622;28;20029;-19
2022/01/11 09:03:46;;;;;;;31.83;18.63;;;3.80;62.90;;;;;;5075629;28;20078;-19
2022/01/11 09:06:12;;;;;;;34.45;16.73;;;4.00;62.70;;;;;;5074183;28;20024;-25
2022/01/11 09:08:39;;;;;;;27.60;15.02;;;4.30;62.00;;;;;;5075038;28;20428;-20
2022/01/11 09:11:06;;;;;;;30.42;18.40;;;4.50;61.80;;;;;;5075478;28;20020;-20
2022/01/11 09:13:33;;;;;;;22.10;12.77;;;4.70;61.10;;;;;;5075257;28;20033;-20
2022/01/11 09:16:00;;;;;;;25.55;14.30;;;4.90;61.00;;;;;;5074826;28;20021;-20
2022/01/11 09:18:26;;;;;;;33.95;18.02;;;5.10;61.10;;;;;;5074938;28;20064;-20
2022/01/11 09:20:52;;;;;;;32.40;19.50;;;5.40;60.40;;;;;;5075473;28;20052;-20
2022/01/11 09:23:18;;;;;;;29.10;18.15;;;5.60;60.00;;;;;;5075105;28;20032;-20
2022/01/11 09:25:45;;;;;;;21.15;12.75;;;5.80;60.10;;;;;;5074708;28;20377;-20
2022/01/11 09:28:12;;;;;;;16.88;10.13;;;6.00;59.90;;;;;;5074599;28;20077;-20
2022/01/11 09:30:38;;;;;;;15.82;9.05;;;6.20;59.00;;;;;;5074860;28;20020;-21
2022/01/11 09:33:04;;;;;;;13.90;8.07;;;6.50;59.00;;;;;;5074703;28;20515;-21
2022/01/11 09:35:30;;;;;;;14.02;7.85;;;6.80;57.80;;;;;;5074790;28;20024;-22
2022/01/11 09:37:56;;;;;;;13.45;7.63;;;7.00;57.90;;;;;;5074513;28;20557;-22
2022/01/11 09:40:22;;;;;;;13.05;7.03;;;7.30;56.80;;;;;;5074577;28;20021;-22
2022/01/11 09:42:48;;;;;;;17.83;7.15;;;7.60;56.10;;;;;;5074293;28;20396;-22
2022/01/11 09:45:14;;;;;;;9.18;5.90;;;7.90;54.30;;;;;;5074664;28;20059;-22
2022/01/11 09:47:41;;;;;;;9.40;5.35;;;8.20;53.60;;;;;;5074605;28;20028;-22
2022/01/11 09:50:10;;;;;;;14.60;8.18;;;8.40;54.30;;;;;;5074640;28;20017;-21
2022/01/11 09:52:37;;;;;;;9.43;5.50;;;8.60;53.30;;;;;;5073772;28;20381;-22
2022/01/11 09:55:05;;;;;;;15.77;8.07;;;8.80;50.10;;;;;;5074319;28;20511;-22
2022/01/11 09:57:31;;;;;;;12.82;7.60;;;9.00;49.50;;;;;;5074365;28;20036;-22
2022/01/11 09:59:57;;;;;;;14.95;8.50;;;9.10;50.90;;;;;;5074063;28;20025;-22
2022/01/11 10:02:23;;;;;;;14.88;8.95;;;9.30;49.50;;;;;;5074384;28;20477;-22
2022/01/11 10:04:58;;;;;;;15.43;9.00;;;9.40;49.40;;;;;;5073963;28;20388;-22
2022/01/11 10:07:37;;;;;;;17.67;10.52;;;9.50;50.90;;;;;;5074252;28;20027;-22
2022/01/11 10:10:04;;;;;;;19.83;9.75;;;9.70;49.30;;;;;;5074121;28;20028;-22
2022/01/11 10:13:03;;;;;;;15.13;8.52;;;9.80;48.80;;;;;;5072895;28;20021;-22
2022/01/11 10:15:34;;;;;;;17.52;11.02;;;9.90;49.70;;;;;;5073708;28;20059;-22
2022/01/11 10:18:02;;;;;;;15.77;9.52;;;10.10;48.40;;;;;;5074008;28;20021;-22
2022/01/11 10:20:28;;;;;;;15.90;9.13;;;10.20;49.00;;;;;;5073750;28;20465;-22
2022/01/11 10:23:00;;;;;;;14.52;8.85;;;10.30;49.30;;;;;;5073965;28;20028;-23
2022/01/11 10:25:28;;;;;;;15.90;10.15;;;10.40;49.30;;;;;;5073863;28;20035;-22
2022/01/11 10:27:59;;;;;;;18.25;11.05;;;10.60;48.70;;;;;;5073551;28;20077;-21
2022/01/11 10:30:26;;;;;;;16.92;10.30;;;10.70;46.40;;;;;;5073562;28;20024;-22
2022/01/11 10:32:55;;;;;;;12.90;6.95;;;10.80;46.60;;;;;;5073768;28;20040;-21
2022/01/11 10:35:25;;;;;;;15.57;8.88;;;11.00;49.30;;;;;;5073681;28;20055;-22
2022/01/11 10:37:53;;;;;;;15.10;9.20;;;11.30;47.70;;;;;;5073463;28;20078;-21
2022/01/11 10:40:24;;;;;;;17.02;9.70;;;11.50;45.90;;;;;;5073175;28;20107;-22
2022/01/11 10:42:56;;;;;;;19.42;11.40;;;11.70;46.00;;;;;;5073303;28;20024;-21
2022/01/11 10:45:31;;;;;;;17.02;9.23;;;11.80;44.40;;;;;;5073619;28;20021;-22
2022/01/11 10:48:01;;;;;;;14.45;8.38;;;11.90;45.70;;;;;;5073512;28;20028;-22
2022/01/11 10:50:37;;;;;;;16.60;7.68;;;12.00;45.90;;;;;;5073191;28;20021;-22
2022/01/11 10:53:19;;;;;;;13.57;8.73;;;12.00;45.00;;;;;;5073187;28;20049;-22
2022/01/11 10:55:51;;;;;;;12.68;7.88;;;11.90;41.90;;;;;;5073569;28;20033;-22
2022/01/11 10:58:18;;;;;;;11.23;6.85;;;12.00;44.40;;;;;;5073153;28;20075;-22
2022/01/11 11:00:49;;;;;;;10.57;7.03;;;12.10;45.30;;;;;;5073464;28;20037;-21
2022/01/11 11:03:19;;;;;;;10.38;6.10;;;12.30;45.80;;;;;;5073183;28;20619;-21
2022/01/11 11:05:49;;;;;;;11.57;6.70;;;12.50;45.70;;;;;;5073305;28;20020;-22
2022/01/11 11:08:18;;;;;;;10.30;6.30;;;12.90;44.40;;;;;;5073148;28;20100;-22
2022/01/11 11:10:48;;;;;;;11.30;6.45;;;13.10;43.60;;;;;;5073324;28;20039;-21
2022/01/11 11:13:31;;;;;;;11.02;6.80;;;13.40;42.40;;;;;;5073253;28;20136;-22
2022/01/11 11:16:11;;;;;;;13.55;7.25;;;13.60;41.90;;;;;;5072969;28;20035;-22
2022/01/11 11:18:42;;;;;;;8.60;4.78;;;13.80;43.30;;;;;;5073667;28;20508;-22
2022/01/11 11:21:26;;;;;;;12.93;7.22;;;13.90;44.70;;;;;;5071758;28;20419;-22
2022/01/11 11:23:59;;;;;;;8.43;6.00;;;14.20;43.40;;;;;;5076422;28;20021;-21
2022/01/11 11:26:36;;;;;;;14.48;8.48;;;14.50;43.40;;;;;;5077263;28;20049;-21
2022/01/11 11:29:06;;;;;;;13.68;8.35;;;14.90;43.30;;;;;;5077258;28;20020;-22
2022/01/11 11:31:34;;;;;;;8.88;5.75;;;15.30;42.50;;;;;;5077589;28;20025;-22
2022/01/11 11:34:02;;;;;;;8.20;4.75;;;15.70;41.60;;;;;;5077190;28;20028;-21
2022/01/11 11:36:30;;;;;;;7.80;5.13;;;16.10;41.60;;;;;;5076690;28;20028;-22
2022/01/11 11:39:03;;;;;;;7.75;4.82;;;16.60;41.50;;;;;;5076788;28;20047;-22
2022/01/11 11:41:31;;;;;;;6.60;3.95;;;17.10;41.50;;;;;;5076835;28;20036;-22
2022/01/11 11:44:19;;;;;;;7.30;4.25;;;17.50;41.10;;;;;;5076562;28;20025;-22
2022/01/11 11:46:53;;;;;;;8.00;5.05;;;18.00;38.50;;;;;;5077029;28;20090;-21
2022/01/11 11:49:55;;;;;;;9.10;5.43;;;18.50;38.00;;;;;;5076670;28;20052;-22
2022/01/11 11:52:38;;;;;;;9.10;5.30;;;19.00;33.80;;;;;;5074499;28;20070;-22
2022/01/11 11:55:24;;;;;;;7.18;4.40;;;19.40;36.40;;;;;;5074428;28;20040;-22
2022/01/11 11:57:54;;;;;;;9.00;5.70;;;19.80;36.90;;;;;;5074298;28;20477;-22
2022/01/11 12:00:22;;;;;;;9.82;5.35;;;20.20;37.10;;;;;;5074091;28;20032;-22
2022/01/11 12:02:50;;;;;;;7.70;4.20;;;20.50;36.00;;;;;;5074379;28;20132;-22
2022/01/11 12:05:42;;;;;;;6.75;4.03;;;20.80;35.20;;;;;;5074249;28;20020;-22
2022/01/11 12:08:42;;;;;;;5.72;3.67;;;21.10;35.50;;;;;;5074154;28;20039;-22
2022/01/11 12:11:15;;;;;;;4.82;3.42;;;21.50;32.10;;;;;;5074129;28;20028;-22
2022/01/11 12:13:42;;;;;;;4.28;2.70;;;21.90;34.20;;;;;;5074218;28;20031;-23
2022/01/11 12:16:26;;;;;;;4.03;3.05;;;22.20;34.30;;;;;;5073911;28;20032;-22
2022/01/11 12:18:57;;;;;;;5.90;3.60;;;22.50;32.00;;;;;;5073966;28;20029;-22
2022/01/11 12:21:26;;;;;;;4.07;2.50;;;22.80;33.80;;;;;;5073921;28;20032;-22
2022/01/11 12:23:59;;;;;;;6.53;3.70;;;23.10;34.00;;;;;;5074142;28;20028;-22
2022/01/11 12:26:28;;;;;;;7.03;4.75;;;23.40;33.50;;;;;;5073657;28;20036;-22
2022/01/11 12:29:04;;;;;;;3.88;2.92;;;23.70;32.60;;;;;;5075591;28;20047;-22
2022/01/11 12:31:33;;;;;;;5.82;3.65;;;23.90;32.40;;;;;;5076117;28;20055;-22
2022/01/11 12:34:00;;;;;;;4.63;3.17;;;24.20;32.00;;;;;;5074616;28;20031;-22
2022/01/11 12:36:51;;;;;;;6.35;3.63;;;24.50;31.80;;;;;;5075509;28;20516;-22
2022/01/11 12:39:18;;;;;;;3.72;2.88;;;24.70;26.70;;;;;;5076032;28;20067;-22
2022/01/11 12:41:44;;;;;;;4.68;3.08;;;24.90;31.50;;;;;;5075589;28;20388;-22
2022/01/11 12:47:06;;;;;;;4.70;3.33;;;25.10;30.20;;;;;;5075825;28;20392;-22
2022/01/11 12:49:34;;;;;;;3.17;2.30;;;24.90;30.20;;;;;;5075403;28;20025;-23